sensor_id;sensor_type;location;lat;lon;timestamp;P1;durP1;ratioP1;P2;durP2;ratioP2
22786;SDS011;63134;52.020;4.714;2023-03-08T00:02:01;16.52;;;6.45;;
22786;SDS011;63134;52.020;4.714;2023-03-08T00:04:47;13.23;;;6.70;;
22786;SDS011;63134;52.020;4.714;2023-03-08T00:07:32;13.25;;;5.80;;
22786;SDS011;63134;52.020;4.714;2023-03-08T00:10:18;13.32;;;5.95;;
22786;SDS011;63134;52.020;4.714;2023-03-08T00:13:04;11.63;;;5.68;;
22786;SDS011;63134;52.020;4.714;2023-03-08T00:15:50;11.07;;;5.45;;
22786;SDS011;63134;52.020;4.714;2023-03-08T00:18:37;12.65;;;6.05;;
22786;SDS011;63134;52.020;4.714;2023-03-08T00:21:32;15.85;;;6.10;;
22786;SDS011;63134;52.020;4.714;2023-03-08T00:24:18;11.98;;;5.65;;
22786;SDS011;63134;52.020;4.714;2023-03-08T00:27:07;6.70;;;4.60;;
22786;SDS011;63134;52.020;4.714;2023-03-08T00:29:52;9.52;;;2.78;;
22786;SDS011;63134;52.020;4.714;2023-03-08T00:32:38;7.13;;;2.88;;
22786;SDS011;63134;52.020;4.714;2023-03-08T00:35:23;2.65;;;1.77;;
22786;SDS011;63134;52.020;4.714;2023-03-08T00:38:09;5.68;;;1.80;;
22786;SDS011;63134;52.020;4.714;2023-03-08T00:40:55;2.70;;;1.90;;
22786;SDS011;63134;52.020;4.714;2023-03-08T00:43:41;4.72;;;1.55;;
22786;SDS011;63134;52.020;4.714;2023-03-08T00:46:32;6.65;;;1.45;;
22786;SDS011;63134;52.020;4.714;2023-03-08T00:49:17;7.13;;;1.52;;
22786;SDS011;63134;52.020;4.714;2023-03-08T00:52:03;2.75;;;1.08;;
22786;SDS011;63134;52.020;4.714;2023-03-08T00:54:51;4.38;;;1.17;;
22786;SDS011;63134;52.020;4.714;2023-03-08T00:57:37;5.18;;;2.33;;
22786;SDS011;63134;52.020;4.714;2023-03-08T01:00:22;5.57;;;2.10;;
22786;SDS011;63134;52.020;4.714;2023-03-08T01:03:08;6.38;;;2.50;;
22786;SDS011;63134;52.020;4.714;2023-03-08T01:05:54;6.72;;;3.47;;
22786;SDS011;63134;52.020;4.714;2023-03-08T01:08:41;13.70;;;4.10;;
22786;SDS011;63134;52.020;4.714;2023-03-08T01:11:30;7.80;;;3.75;;
22786;SDS011;63134;52.020;4.714;2023-03-08T01:14:19;7.50;;;3.67;;
22786;SDS011;63134;52.020;4.714;2023-03-08T01:17:04;9.45;;;3.28;;
22786;SDS011;63134;52.020;4.714;2023-03-08T01:19:50;14.23;;;3.28;;
22786;SDS011;63134;52.020;4.714;2023-03-08T01:22:35;7.88;;;3.15;;
22786;SDS011;63134;52.020;4.714;2023-03-08T01:25:21;9.95;;;3.45;;
22786;SDS011;63134;52.020;4.714;2023-03-08T01:28:07;5.93;;;3.20;;
22786;SDS011;63134;52.020;4.714;2023-03-08T01:30:53;13.55;;;3.45;;
22786;SDS011;63134;52.020;4.714;2023-03-08T01:33:38;6.38;;;2.83;;
22786;SDS011;63134;52.020;4.714;2023-03-08T01:36:25;5.45;;;3.20;;
22786;SDS011;63134;52.020;4.714;2023-03-08T01:39:12;8.02;;;3.33;;
22786;SDS011;63134;52.020;4.714;2023-03-08T01:42:02;8.63;;;4.18;;
22786;SDS011;63134;52.020;4.714;2023-03-08T01:44:55;9.60;;;3.67;;
22786;SDS011;63134;52.020;4.714;2023-03-08T01:47:50;6.93;;;3.30;;
22786;SDS011;63134;52.020;4.714;2023-03-08T01:50:42;12.52;;;3.50;;
22786;SDS011;63134;52.020;4.714;2023-03-08T01:53:30;9.73;;;3.60;;
22786;SDS011;63134;52.020;4.714;2023-03-08T01:56:16;12.45;;;3.80;;
22786;SDS011;63134;52.020;4.714;2023-03-08T01:59:06;5.65;;;3.53;;
22786;SDS011;63134;52.020;4.714;2023-03-08T02:01:53;10.95;;;3.50;;
22786;SDS011;63134;52.020;4.714;2023-03-08T02:04:39;7.68;;;3.42;;
22786;SDS011;63134;52.020;4.714;2023-03-08T02:07:28;6.70;;;3.78;;
22786;SDS011;63134;52.020;4.714;2023-03-08T02:10:14;8.70;;;3.83;;
22786;SDS011;63134;52.020;4.714;2023-03-08T02:13:02;11.65;;;4.55;;
22786;SDS011;63134;52.020;4.714;2023-03-08T02:15:56;14.02;;;4.80;;
22786;SDS011;63134;52.020;4.714;2023-03-08T02:18:58;13.85;;;5.55;;
22786;SDS011;63134;52.020;4.714;2023-03-08T02:21:45;13.57;;;5.90;;
22786;SDS011;63134;52.020;4.714;2023-03-08T02:24:31;14.43;;;6.20;;
22786;SDS011;63134;52.020;4.714;2023-03-08T02:27:17;11.13;;;6.75;;
22786;SDS011;63134;52.020;4.714;2023-03-08T02:30:09;12.15;;;6.95;;
22786;SDS011;63134;52.020;4.714;2023-03-08T02:32:56;26.70;;;9.00;;
22786;SDS011;63134;52.020;4.714;2023-03-08T02:35:45;20.33;;;9.98;;
22786;SDS011;63134;52.020;4.714;2023-03-08T02:38:31;18.02;;;8.75;;
22786;SDS011;63134;52.020;4.714;2023-03-08T02:41:16;28.85;;;10.18;;
22786;SDS011;63134;52.020;4.714;2023-03-08T02:44:02;19.20;;;10.02;;
22786;SDS011;63134;52.020;4.714;2023-03-08T02:46:52;20.02;;;10.48;;
22786;SDS011;63134;52.020;4.714;2023-03-08T02:49:38;24.92;;;12.45;;
22786;SDS011;63134;52.020;4.714;2023-03-08T02:52:28;21.80;;;12.57;;
22786;SDS011;63134;52.020;4.714;2023-03-08T02:55:14;30.00;;;14.90;;
22786;SDS011;63134;52.020;4.714;2023-03-08T02:57:59;31.77;;;15.75;;
22786;SDS011;63134;52.020;4.714;2023-03-08T03:00:45;32.20;;;16.80;;
22786;SDS011;63134;52.020;4.714;2023-03-08T03:03:31;37.22;;;17.42;;
22786;SDS011;63134;52.020;4.714;2023-03-08T03:06:17;31.30;;;18.58;;
22786;SDS011;63134;52.020;4.714;2023-03-08T03:09:08;37.05;;;18.45;;
22786;SDS011;63134;52.020;4.714;2023-03-08T03:11:54;34.85;;;19.95;;
22786;SDS011;63134;52.020;4.714;2023-03-08T03:14:40;30.35;;;17.15;;
22786;SDS011;63134;52.020;4.714;2023-03-08T03:17:26;39.78;;;18.08;;
22786;SDS011;63134;52.020;4.714;2023-03-08T03:20:18;36.38;;;19.15;;
22786;SDS011;63134;52.020;4.714;2023-03-08T03:23:04;35.88;;;20.10;;
22786;SDS011;63134;52.020;4.714;2023-03-08T03:26:08;45.40;;;21.77;;
22786;SDS011;63134;52.020;4.714;2023-03-08T03:28:56;47.97;;;24.80;;
22786;SDS011;63134;52.020;4.714;2023-03-08T03:31:46;44.60;;;23.10;;
22786;SDS011;63134;52.020;4.714;2023-03-08T03:34:40;61.13;;;28.63;;
22786;SDS011;63134;52.020;4.714;2023-03-08T03:37:26;53.92;;;28.20;;
22786;SDS011;63134;52.020;4.714;2023-03-08T03:43:33;44.17;;;26.20;;
22786;SDS011;63134;52.020;4.714;2023-03-08T03:46:20;48.13;;;27.98;;
22786;SDS011;63134;52.020;4.714;2023-03-08T03:49:09;52.90;;;30.67;;
22786;SDS011;63134;52.020;4.714;2023-03-08T03:51:58;59.33;;;30.95;;
22786;SDS011;63134;52.020;4.714;2023-03-08T03:54:52;56.03;;;30.20;;
22786;SDS011;63134;52.020;4.714;2023-03-08T03:57:38;59.28;;;32.22;;
22786;SDS011;63134;52.020;4.714;2023-03-08T04:00:25;60.40;;;32.67;;
22786;SDS011;63134;52.020;4.714;2023-03-08T04:03:24;65.60;;;35.17;;
22786;SDS011;63134;52.020;4.714;2023-03-08T04:06:11;83.97;;;37.33;;
22786;SDS011;63134;52.020;4.714;2023-03-08T04:09:00;73.05;;;35.85;;
22786;SDS011;63134;52.020;4.714;2023-03-08T04:11:54;79.70;;;37.47;;
22786;SDS011;63134;52.020;4.714;2023-03-08T04:14:47;73.70;;;35.28;;
22786;SDS011;63134;52.020;4.714;2023-03-08T04:17:33;93.97;;;38.25;;
22786;SDS011;63134;52.020;4.714;2023-03-08T04:20:20;95.45;;;41.80;;
22786;SDS011;63134;52.020;4.714;2023-03-08T04:23:11;101.47;;;42.63;;
22786;SDS011;63134;52.020;4.714;2023-03-08T04:25:59;92.18;;;42.38;;
22786;SDS011;63134;52.020;4.714;2023-03-08T04:28:46;118.15;;;46.60;;
22786;SDS011;63134;52.020;4.714;2023-03-08T04:31:32;111.95;;;45.53;;
22786;SDS011;63134;52.020;4.714;2023-03-08T04:34:25;114.83;;;45.97;;
22786;SDS011;63134;52.020;4.714;2023-03-08T04:37:12;107.05;;;46.80;;
22786;SDS011;63134;52.020;4.714;2023-03-08T04:40:00;116.70;;;48.17;;
22786;SDS011;63134;52.020;4.714;2023-03-08T04:42:50;120.03;;;47.65;;
22786;SDS011;63134;52.020;4.714;2023-03-08T04:45:41;115.43;;;48.83;;
22786;SDS011;63134;52.020;4.714;2023-03-08T04:48:29;128.90;;;50.20;;
22786;SDS011;63134;52.020;4.714;2023-03-08T04:51:15;121.72;;;47.92;;
22786;SDS011;63134;52.020;4.714;2023-03-08T04:54:03;120.70;;;49.63;;
22786;SDS011;63134;52.020;4.714;2023-03-08T04:56:52;122.88;;;51.05;;
22786;SDS011;63134;52.020;4.714;2023-03-08T04:59:44;134.30;;;52.08;;
22786;SDS011;63134;52.020;4.714;2023-03-08T05:02:31;122.40;;;50.60;;
22786;SDS011;63134;52.020;4.714;2023-03-08T05:05:19;192.27;;;51.65;;
22786;SDS011;63134;52.020;4.714;2023-03-08T05:08:05;158.70;;;49.38;;
22786;SDS011;63134;52.020;4.714;2023-03-08T05:10:56;173.65;;;52.05;;
22786;SDS011;63134;52.020;4.714;2023-03-08T05:13:48;239.00;;;58.05;;
22786;SDS011;63134;52.020;4.714;2023-03-08T05:16:34;149.20;;;51.33;;
22786;SDS011;63134;52.020;4.714;2023-03-08T05:19:21;193.77;;;53.58;;
22786;SDS011;63134;52.020;4.714;2023-03-08T05:22:09;157.18;;;52.80;;
22786;SDS011;63134;52.020;4.714;2023-03-08T05:25:00;236.45;;;53.95;;
22786;SDS011;63134;52.020;4.714;2023-03-08T05:27:45;394.73;;;57.78;;
22786;SDS011;63134;52.020;4.714;2023-03-08T05:30:37;262.17;;;54.65;;
22786;SDS011;63134;52.020;4.714;2023-03-08T05:33:23;185.13;;;54.90;;
22786;SDS011;63134;52.020;4.714;2023-03-08T05:36:09;175.27;;;55.03;;
22786;SDS011;63134;52.020;4.714;2023-03-08T05:38:56;168.98;;;57.38;;
22786;SDS011;63134;52.020;4.714;2023-03-08T05:41:53;146.07;;;54.05;;
22786;SDS011;63134;52.020;4.714;2023-03-08T05:44:44;138.18;;;53.85;;
22786;SDS011;63134;52.020;4.714;2023-03-08T05:47:32;142.70;;;54.25;;
22786;SDS011;63134;52.020;4.714;2023-03-08T05:50:23;152.43;;;53.92;;
22786;SDS011;63134;52.020;4.714;2023-03-08T05:53:15;164.30;;;53.05;;
22786;SDS011;63134;52.020;4.714;2023-03-08T05:56:11;172.45;;;53.30;;
22786;SDS011;63134;52.020;4.714;2023-03-08T05:59:07;193.70;;;54.25;;
22786;SDS011;63134;52.020;4.714;2023-03-08T06:01:53;197.52;;;51.83;;
22786;SDS011;63134;52.020;4.714;2023-03-08T06:05:01;263.20;;;54.10;;
22786;SDS011;63134;52.020;4.714;2023-03-08T06:07:48;220.77;;;55.50;;
22786;SDS011;63134;52.020;4.714;2023-03-08T06:10:41;265.27;;;57.92;;
22786;SDS011;63134;52.020;4.714;2023-03-08T06:13:27;317.08;;;62.08;;
22786;SDS011;63134;52.020;4.714;2023-03-08T06:16:14;564.42;;;68.05;;
22786;SDS011;63134;52.020;4.714;2023-03-08T06:19:01;482.08;;;68.63;;
22786;SDS011;63134;52.020;4.714;2023-03-08T06:21:47;315.60;;;60.85;;
22786;SDS011;63134;52.020;4.714;2023-03-08T06:24:33;387.23;;;61.63;;
22786;SDS011;63134;52.020;4.714;2023-03-08T06:27:26;364.73;;;65.20;;
22786;SDS011;63134;52.020;4.714;2023-03-08T06:30:18;326.05;;;62.75;;
22786;SDS011;63134;52.020;4.714;2023-03-08T06:33:04;338.80;;;63.10;;
22786;SDS011;63134;52.020;4.714;2023-03-08T06:36:00;248.65;;;63.40;;
22786;SDS011;63134;52.020;4.714;2023-03-08T06:38:47;195.32;;;56.55;;
22786;SDS011;63134;52.020;4.714;2023-03-08T06:41:36;240.63;;;58.70;;
22786;SDS011;63134;52.020;4.714;2023-03-08T06:44:23;285.25;;;59.33;;
22786;SDS011;63134;52.020;4.714;2023-03-08T06:47:08;321.85;;;60.25;;
22786;SDS011;63134;52.020;4.714;2023-03-08T06:49:54;216.77;;;57.88;;
22786;SDS011;63134;52.020;4.714;2023-03-08T06:52:39;231.32;;;58.10;;
22786;SDS011;63134;52.020;4.714;2023-03-08T06:55:25;210.15;;;56.58;;
22786;SDS011;63134;52.020;4.714;2023-03-08T06:58:11;271.88;;;59.53;;
22786;SDS011;63134;52.020;4.714;2023-03-08T07:00:58;227.52;;;59.13;;
22786;SDS011;63134;52.020;4.714;2023-03-08T07:03:43;307.80;;;63.85;;
22786;SDS011;63134;52.020;4.714;2023-03-08T07:06:30;233.50;;;57.78;;
22786;SDS011;63134;52.020;4.714;2023-03-08T07:09:15;210.57;;;58.13;;
22786;SDS011;63134;52.020;4.714;2023-03-08T07:12:01;163.18;;;56.10;;
22786;SDS011;63134;52.020;4.714;2023-03-08T07:14:46;164.60;;;57.03;;
22786;SDS011;63134;52.020;4.714;2023-03-08T07:17:32;153.15;;;56.85;;
22786;SDS011;63134;52.020;4.714;2023-03-08T07:20:19;160.75;;;54.13;;
22786;SDS011;63134;52.020;4.714;2023-03-08T07:23:05;146.10;;;56.28;;
22786;SDS011;63134;52.020;4.714;2023-03-08T07:25:50;223.63;;;54.10;;
22786;SDS011;63134;52.020;4.714;2023-03-08T07:28:43;278.58;;;55.80;;
22786;SDS011;63134;52.020;4.714;2023-03-08T07:31:31;225.23;;;55.15;;
22786;SDS011;63134;52.020;4.714;2023-03-08T07:34:20;205.10;;;52.65;;
22786;SDS011;63134;52.020;4.714;2023-03-08T07:37:12;150.60;;;54.00;;
22786;SDS011;63134;52.020;4.714;2023-03-08T07:39:59;190.88;;;56.70;;
22786;SDS011;63134;52.020;4.714;2023-03-08T07:42:44;258.13;;;54.17;;
22786;SDS011;63134;52.020;4.714;2023-03-08T07:45:45;197.35;;;53.55;;
22786;SDS011;63134;52.020;4.714;2023-03-08T07:51:42;112.28;;;49.88;;
22786;SDS011;63134;52.020;4.714;2023-03-08T07:54:27;105.30;;;50.28;;
22786;SDS011;63134;52.020;4.714;2023-03-08T07:57:19;104.10;;;48.53;;
22786;SDS011;63134;52.020;4.714;2023-03-08T08:00:04;102.22;;;49.85;;
22786;SDS011;63134;52.020;4.714;2023-03-08T08:02:56;89.07;;;44.72;;
22786;SDS011;63134;52.020;4.714;2023-03-08T08:05:43;93.03;;;45.72;;
22786;SDS011;63134;52.020;4.714;2023-03-08T08:08:28;92.68;;;44.63;;
22786;SDS011;63134;52.020;4.714;2023-03-08T08:11:15;83.20;;;42.50;;
22786;SDS011;63134;52.020;4.714;2023-03-08T08:14:01;77.13;;;40.38;;
22786;SDS011;63134;52.020;4.714;2023-03-08T08:16:48;83.95;;;42.15;;
22786;SDS011;63134;52.020;4.714;2023-03-08T08:19:34;80.85;;;40.88;;
22786;SDS011;63134;52.020;4.714;2023-03-08T08:22:20;82.82;;;42.55;;
22786;SDS011;63134;52.020;4.714;2023-03-08T08:25:06;81.63;;;42.67;;
22786;SDS011;63134;52.020;4.714;2023-03-08T08:27:52;81.07;;;41.70;;
22786;SDS011;63134;52.020;4.714;2023-03-08T08:30:37;74.28;;;39.88;;
22786;SDS011;63134;52.020;4.714;2023-03-08T08:33:23;77.13;;;41.60;;
22786;SDS011;63134;52.020;4.714;2023-03-08T08:36:10;78.05;;;40.50;;
22786;SDS011;63134;52.020;4.714;2023-03-08T08:38:57;71.90;;;38.67;;
22786;SDS011;63134;52.020;4.714;2023-03-08T08:41:43;67.78;;;36.78;;
22786;SDS011;63134;52.020;4.714;2023-03-08T08:44:35;71.88;;;38.03;;
22786;SDS011;63134;52.020;4.714;2023-03-08T08:47:21;65.78;;;37.55;;
22786;SDS011;63134;52.020;4.714;2023-03-08T08:50:07;60.75;;;34.83;;
22786;SDS011;63134;52.020;4.714;2023-03-08T08:52:53;52.63;;;32.40;;
22786;SDS011;63134;52.020;4.714;2023-03-08T08:55:40;52.05;;;30.65;;
22786;SDS011;63134;52.020;4.714;2023-03-08T08:58:28;51.30;;;31.25;;
22786;SDS011;63134;52.020;4.714;2023-03-08T09:01:22;52.80;;;30.38;;
22786;SDS011;63134;52.020;4.714;2023-03-08T09:04:12;44.75;;;28.13;;
22786;SDS011;63134;52.020;4.714;2023-03-08T09:07:00;42.30;;;26.00;;
22786;SDS011;63134;52.020;4.714;2023-03-08T09:09:46;39.95;;;25.58;;
22786;SDS011;63134;52.020;4.714;2023-03-08T09:12:31;42.63;;;27.02;;
22786;SDS011;63134;52.020;4.714;2023-03-08T09:15:17;38.38;;;24.48;;
22786;SDS011;63134;52.020;4.714;2023-03-08T09:18:02;36.88;;;23.50;;
22786;SDS011;63134;52.020;4.714;2023-03-08T09:20:48;34.40;;;21.38;;
22786;SDS011;63134;52.020;4.714;2023-03-08T09:23:36;31.67;;;20.48;;
22786;SDS011;63134;52.020;4.714;2023-03-08T09:26:22;29.77;;;20.27;;
22786;SDS011;63134;52.020;4.714;2023-03-08T09:29:08;27.63;;;17.95;;
22786;SDS011;63134;52.020;4.714;2023-03-08T09:31:54;29.23;;;18.65;;
22786;SDS011;63134;52.020;4.714;2023-03-08T09:34:42;26.13;;;16.63;;
22786;SDS011;63134;52.020;4.714;2023-03-08T09:37:28;29.55;;;18.80;;
22786;SDS011;63134;52.020;4.714;2023-03-08T09:40:17;26.55;;;18.52;;
22786;SDS011;63134;52.020;4.714;2023-03-08T09:43:09;26.35;;;17.58;;
22786;SDS011;63134;52.020;4.714;2023-03-08T09:46:04;28.33;;;17.75;;
22786;SDS011;63134;52.020;4.714;2023-03-08T09:48:53;29.42;;;18.38;;
22786;SDS011;63134;52.020;4.714;2023-03-08T09:51:45;25.58;;;17.02;;
22786;SDS011;63134;52.020;4.714;2023-03-08T09:54:38;27.48;;;18.25;;
22786;SDS011;63134;52.020;4.714;2023-03-08T09:57:27;25.35;;;17.83;;
22786;SDS011;63134;52.020;4.714;2023-03-08T10:00:28;23.67;;;16.38;;
22786;SDS011;63134;52.020;4.714;2023-03-08T10:15:33;16.13;;;11.93;;
22786;SDS011;63134;52.020;4.714;2023-03-08T10:18:59;17.55;;;12.02;;
22786;SDS011;63134;52.020;4.714;2023-03-08T10:21:39;19.80;;;12.68;;
22786;SDS011;63134;52.020;4.714;2023-03-08T10:24:28;17.90;;;11.60;;
22786;SDS011;63134;52.020;4.714;2023-03-08T10:27:21;15.45;;;11.00;;
22786;SDS011;63134;52.020;4.714;2023-03-08T10:30:14;17.83;;;11.90;;
22786;SDS011;63134;52.020;4.714;2023-03-08T10:33:02;19.40;;;12.38;;
22786;SDS011;63134;52.020;4.714;2023-03-08T10:36:02;16.30;;;11.63;;
22786;SDS011;63134;52.020;4.714;2023-03-08T10:39:07;19.25;;;12.68;;
22786;SDS011;63134;52.020;4.714;2023-03-08T10:41:59;16.45;;;12.10;;
22786;SDS011;63134;52.020;4.714;2023-03-08T10:44:54;24.02;;;12.88;;
22786;SDS011;63134;52.020;4.714;2023-03-08T10:47:54;18.40;;;11.93;;
22786;SDS011;63134;52.020;4.714;2023-03-08T10:50:56;17.55;;;11.80;;
22786;SDS011;63134;52.020;4.714;2023-03-08T10:54:03;18.08;;;11.00;;
22786;SDS011;63134;52.020;4.714;2023-03-08T10:56:51;17.60;;;11.35;;
22786;SDS011;63134;52.020;4.714;2023-03-08T10:59:45;18.33;;;11.13;;
22786;SDS011;63134;52.020;4.714;2023-03-08T11:02:33;14.45;;;10.02;;
22786;SDS011;63134;52.020;4.714;2023-03-08T11:05:20;14.20;;;10.40;;
22786;SDS011;63134;52.020;4.714;2023-03-08T11:08:18;15.02;;;9.68;;
22786;SDS011;63134;52.020;4.714;2023-03-08T11:13:55;13.15;;;9.65;;
22786;SDS011;63134;52.020;4.714;2023-03-08T11:22:47;14.35;;;10.07;;
22786;SDS011;63134;52.020;4.714;2023-03-08T11:25:37;15.07;;;11.07;;
22786;SDS011;63134;52.020;4.714;2023-03-08T11:34:55;17.55;;;12.25;;
22786;SDS011;63134;52.020;4.714;2023-03-08T11:50:35;13.60;;;10.05;;
22786;SDS011;63134;52.020;4.714;2023-03-08T11:59:42;13.57;;;10.88;;
22786;SDS011;63134;52.020;4.714;2023-03-08T12:02:32;17.23;;;11.02;;
22786;SDS011;63134;52.020;4.714;2023-03-08T12:08:17;16.13;;;11.30;;
22786;SDS011;63134;52.020;4.714;2023-03-08T12:11:22;17.15;;;12.00;;
22786;SDS011;63134;52.020;4.714;2023-03-08T12:14:30;15.52;;;11.43;;
22786;SDS011;63134;52.020;4.714;2023-03-08T12:17:19;17.27;;;11.90;;
22786;SDS011;63134;52.020;4.714;2023-03-08T12:20:13;15.98;;;11.80;;
22786;SDS011;63134;52.020;4.714;2023-03-08T12:26:27;16.95;;;11.57;;
22786;SDS011;63134;52.020;4.714;2023-03-08T12:29:29;17.20;;;11.98;;
22786;SDS011;63134;52.020;4.714;2023-03-08T12:32:29;18.75;;;13.65;;
22786;SDS011;63134;52.020;4.714;2023-03-08T12:41:03;18.67;;;13.95;;
22786;SDS011;63134;52.020;4.714;2023-03-08T12:46:48;21.17;;;14.55;;
22786;SDS011;63134;52.020;4.714;2023-03-08T12:49:51;23.60;;;14.38;;
22786;SDS011;63134;52.020;4.714;2023-03-08T12:52:40;21.65;;;13.70;;
22786;SDS011;63134;52.020;4.714;2023-03-08T12:55:26;21.15;;;13.50;;
22786;SDS011;63134;52.020;4.714;2023-03-08T12:58:17;25.02;;;14.13;;
22786;SDS011;63134;52.020;4.714;2023-03-08T13:01:22;18.95;;;13.52;;
22786;SDS011;63134;52.020;4.714;2023-03-08T13:04:25;22.85;;;15.20;;
22786;SDS011;63134;52.020;4.714;2023-03-08T13:07:33;20.65;;;13.82;;
22786;SDS011;63134;52.020;4.714;2023-03-08T13:10:25;22.52;;;14.80;;
22786;SDS011;63134;52.020;4.714;2023-03-08T13:13:48;24.02;;;15.43;;
22786;SDS011;63134;52.020;4.714;2023-03-08T13:16:38;21.17;;;14.93;;
22786;SDS011;63134;52.020;4.714;2023-03-08T13:19:25;22.85;;;15.45;;
22786;SDS011;63134;52.020;4.714;2023-03-08T13:22:29;23.50;;;14.75;;
22786;SDS011;63134;52.020;4.714;2023-03-08T13:25:30;24.20;;;15.18;;
22786;SDS011;63134;52.020;4.714;2023-03-08T13:28:19;27.02;;;15.57;;
22786;SDS011;63134;52.020;4.714;2023-03-08T13:31:12;24.05;;;15.05;;
22786;SDS011;63134;52.020;4.714;2023-03-08T13:34:18;25.73;;;16.05;;
22786;SDS011;63134;52.020;4.714;2023-03-08T13:40:13;25.77;;;15.80;;
22786;SDS011;63134;52.020;4.714;2023-03-08T13:43:01;26.80;;;15.30;;
22786;SDS011;63134;52.020;4.714;2023-03-08T13:45:53;26.30;;;15.63;;
22786;SDS011;63134;52.020;4.714;2023-03-08T13:48:42;23.23;;;13.85;;
22786;SDS011;63134;52.020;4.714;2023-03-08T13:51:28;26.52;;;15.10;;
22786;SDS011;63134;52.020;4.714;2023-03-08T13:54:15;23.42;;;14.00;;
22786;SDS011;63134;52.020;4.714;2023-03-08T14:03:27;22.15;;;14.43;;
22786;SDS011;63134;52.020;4.714;2023-03-08T14:06:25;26.83;;;14.10;;
22786;SDS011;63134;52.020;4.714;2023-03-08T14:09:15;26.13;;;14.52;;
22786;SDS011;63134;52.020;4.714;2023-03-08T14:12:01;24.65;;;14.60;;
22786;SDS011;63134;52.020;4.714;2023-03-08T14:14:53;26.42;;;15.43;;
22786;SDS011;63134;52.020;4.714;2023-03-08T14:17:44;27.80;;;15.30;;
22786;SDS011;63134;52.020;4.714;2023-03-08T14:20:29;25.02;;;15.10;;
22786;SDS011;63134;52.020;4.714;2023-03-08T14:23:20;24.77;;;14.95;;
22786;SDS011;63134;52.020;4.714;2023-03-08T14:35:02;26.85;;;16.13;;
22786;SDS011;63134;52.020;4.714;2023-03-08T14:37:53;25.90;;;14.93;;
22786;SDS011;63134;52.020;4.714;2023-03-08T14:40:44;24.05;;;15.00;;
22786;SDS011;63134;52.020;4.714;2023-03-08T14:43:33;26.73;;;16.17;;
22786;SDS011;63134;52.020;4.714;2023-03-08T14:46:19;28.13;;;16.55;;
22786;SDS011;63134;52.020;4.714;2023-03-08T14:49:17;30.83;;;16.70;;
22786;SDS011;63134;52.020;4.714;2023-03-08T14:52:05;35.60;;;20.13;;
22786;SDS011;63134;52.020;4.714;2023-03-08T14:55:04;31.25;;;18.90;;
22786;SDS011;63134;52.020;4.714;2023-03-08T14:58:09;33.60;;;18.60;;
22786;SDS011;63134;52.020;4.714;2023-03-08T15:00:58;35.72;;;19.77;;
22786;SDS011;63134;52.020;4.714;2023-03-08T15:03:47;34.75;;;19.80;;
22786;SDS011;63134;52.020;4.714;2023-03-08T15:06:33;38.65;;;21.17;;
22786;SDS011;63134;52.020;4.714;2023-03-08T15:09:20;42.70;;;22.08;;
22786;SDS011;63134;52.020;4.714;2023-03-08T15:12:08;40.28;;;20.77;;
22786;SDS011;63134;52.020;4.714;2023-03-08T15:14:54;39.03;;;20.20;;
22786;SDS011;63134;52.020;4.714;2023-03-08T15:17:39;37.88;;;20.73;;
22786;SDS011;63134;52.020;4.714;2023-03-08T15:20:25;37.33;;;21.52;;
22786;SDS011;63134;52.020;4.714;2023-03-08T15:23:12;44.30;;;23.60;;
22786;SDS011;63134;52.020;4.714;2023-03-08T15:26:10;43.47;;;22.48;;
22786;SDS011;63134;52.020;4.714;2023-03-08T15:28:59;45.20;;;23.45;;
22786;SDS011;63134;52.020;4.714;2023-03-08T15:31:47;39.92;;;22.00;;
22786;SDS011;63134;52.020;4.714;2023-03-08T15:34:45;41.58;;;22.77;;
22786;SDS011;63134;52.020;4.714;2023-03-08T15:37:31;40.88;;;23.10;;
22786;SDS011;63134;52.020;4.714;2023-03-08T15:40:26;50.40;;;23.50;;
22786;SDS011;63134;52.020;4.714;2023-03-08T15:43:15;39.63;;;22.90;;
22786;SDS011;63134;52.020;4.714;2023-03-08T15:46:01;50.55;;;26.05;;
22786;SDS011;63134;52.020;4.714;2023-03-08T15:48:46;42.67;;;24.20;;
22786;SDS011;63134;52.020;4.714;2023-03-08T15:51:35;50.55;;;25.77;;
22786;SDS011;63134;52.020;4.714;2023-03-08T15:54:21;56.20;;;26.55;;
22786;SDS011;63134;52.020;4.714;2023-03-08T15:57:06;44.13;;;24.98;;
22786;SDS011;63134;52.020;4.714;2023-03-08T15:59:52;49.30;;;24.95;;
22786;SDS011;63134;52.020;4.714;2023-03-08T16:02:38;51.47;;;25.83;;
22786;SDS011;63134;52.020;4.714;2023-03-08T16:05:24;56.65;;;27.42;;
22786;SDS011;63134;52.020;4.714;2023-03-08T16:08:10;49.47;;;25.67;;
22786;SDS011;63134;52.020;4.714;2023-03-08T16:11:01;48.75;;;26.92;;
22786;SDS011;63134;52.020;4.714;2023-03-08T16:13:51;49.58;;;26.70;;
22786;SDS011;63134;52.020;4.714;2023-03-08T16:16:36;48.80;;;26.25;;
22786;SDS011;63134;52.020;4.714;2023-03-08T16:19:33;48.05;;;25.75;;
22786;SDS011;63134;52.020;4.714;2023-03-08T16:22:23;45.55;;;23.88;;
22786;SDS011;63134;52.020;4.714;2023-03-08T16:25:12;47.33;;;23.92;;
22786;SDS011;63134;52.020;4.714;2023-03-08T16:27:58;47.10;;;26.35;;
22786;SDS011;63134;52.020;4.714;2023-03-08T16:30:46;48.13;;;24.55;;
22786;SDS011;63134;52.020;4.714;2023-03-08T16:33:31;59.95;;;27.95;;
22786;SDS011;63134;52.020;4.714;2023-03-08T16:36:17;52.75;;;25.67;;
22786;SDS011;63134;52.020;4.714;2023-03-08T16:39:05;47.92;;;25.15;;
22786;SDS011;63134;52.020;4.714;2023-03-08T16:41:52;52.15;;;25.45;;
22786;SDS011;63134;52.020;4.714;2023-03-08T16:44:41;50.42;;;25.10;;
22786;SDS011;63134;52.020;4.714;2023-03-08T16:53:08;33.05;;;18.45;;
22786;SDS011;63134;52.020;4.714;2023-03-08T16:55:53;43.35;;;21.17;;
22786;SDS011;63134;52.020;4.714;2023-03-08T16:58:39;36.70;;;18.65;;
22786;SDS011;63134;52.020;4.714;2023-03-08T17:01:24;37.20;;;19.98;;
22786;SDS011;63134;52.020;4.714;2023-03-08T17:04:10;46.35;;;19.25;;
22786;SDS011;63134;52.020;4.714;2023-03-08T17:06:56;40.85;;;19.27;;
22786;SDS011;63134;52.020;4.714;2023-03-08T17:09:45;43.33;;;19.33;;
22786;SDS011;63134;52.020;4.714;2023-03-08T17:12:30;43.15;;;21.67;;
22786;SDS011;63134;52.020;4.714;2023-03-08T17:15:16;43.20;;;21.17;;
22786;SDS011;63134;52.020;4.714;2023-03-08T17:18:03;43.83;;;20.65;;
22786;SDS011;63134;52.020;4.714;2023-03-08T17:20:48;44.78;;;21.33;;
22786;SDS011;63134;52.020;4.714;2023-03-08T17:23:35;42.40;;;21.55;;
22786;SDS011;63134;52.020;4.714;2023-03-08T17:26:21;46.67;;;21.52;;
22786;SDS011;63134;52.020;4.714;2023-03-08T17:29:07;44.60;;;21.25;;
22786;SDS011;63134;52.020;4.714;2023-03-08T17:31:52;47.80;;;21.17;;
22786;SDS011;63134;52.020;4.714;2023-03-08T17:34:38;44.42;;;21.65;;
22786;SDS011;63134;52.020;4.714;2023-03-08T17:37:23;50.63;;;21.23;;
22786;SDS011;63134;52.020;4.714;2023-03-08T17:40:09;47.47;;;21.45;;
22786;SDS011;63134;52.020;4.714;2023-03-08T17:42:56;47.70;;;21.77;;
22786;SDS011;63134;52.020;4.714;2023-03-08T17:45:43;50.95;;;22.17;;
22786;SDS011;63134;52.020;4.714;2023-03-08T17:48:33;50.20;;;23.52;;
22786;SDS011;63134;52.020;4.714;2023-03-08T17:51:20;46.03;;;23.63;;
22786;SDS011;63134;52.020;4.714;2023-03-08T17:54:08;49.13;;;23.30;;
22786;SDS011;63134;52.020;4.714;2023-03-08T17:56:55;52.38;;;23.30;;
22786;SDS011;63134;52.020;4.714;2023-03-08T17:59:41;51.40;;;25.00;;
22786;SDS011;63134;52.020;4.714;2023-03-08T18:02:26;56.47;;;25.40;;